Cheyenne, WY

10:46 AM MDT on October 25, 2014 (GMT -0600)
Cheyenne | Change Station
CLOSE
Current Station
Personal Weather Station
Location: Cheyenne, WY
Elevation: 6138 ft
Nearby Weather Stations

Elev 6138 ft 41.15 °N, 104.82 °W | Updated 3 seconds ago

Clear
Clear
67.9 °F
Feels Like 67.9 °F
N
8.0
Wind Variable Wind from SW
Gusts 13.0 mph

Today
High -- | Low -- °F
--% Chance of Precip.
Yesterday
High -- | Low -- °F
Precip. -- in
7:22 AM 6:03 PM
Waxing Crescent, 3% visible
Pressure 30.05 in
Visibility 10.0 miles
Clouds Clear
Dew Point 25 °F
Humidity 20%
Rainfall 0.00 in
Snow Depth Not available.
UV 2 out of 12
Pollen 3.00 out of 12
Air Quality Not available.
Flu Activity Sporadic
METAR KFEW 251556Z AUTO 27006KT 10SM CLR 20/M08 A3023 RMK AO2 SLP175 T02011077 $

More Conditions Fewer Conditions

Pressure 30.05 in
Visibility 10.0 miles
Clouds Clear
Dew Point 25 °F
Humidity 20%
Rainfall 0.00 in
Snow Depth Not available.
UV 2 out of 12
Pollen 3.00 out of 12
Air Quality Not available.
Flu Activity Sporadic
METAR KFEW 251556Z AUTO 27006KT 10SM CLR 20/M08 A3023 RMK AO2 SLP175 T02011077 $

More Conditions Fewer Conditions

10-Day Weather Forecast

Almanac

Astronomy

Oct. 25, 2014 Rise Set
Actual Time 7:22 AM MDT 6:03 PM MDT
Civil Twilight 6:54 AM MDT 6:32 PM MDT
Nautical Twilight 6:21 AM MDT 7:04 PM MDT
Astronomical Twilight 5:49 AM MDT 7:36 PM MDT
Moon 9:04 AM MDT 7:28 PM MDT
Length of Visible Light 11h 38m
Length of Day
10h 41m
Tomorrow will be 2m 31s shorter.
Waxing Crescent, 3% of the Moon is Illuminated
Today
Waxing Crescent
Oct 30
First Quarter
Nov 6
Full
Nov 14
Last Quarter
Nov 22
New

Today's Extremes

State Highs State Lows

Community

WunderPhotos

Upload Photos

1,764,901 photos uploaded!

Nearby

Snow Depth

Station Depth Elevation
Crow Creek 0 in 8330 ft
Whiskey Park 0 in 8950 ft
Cinnabar Park 1 in 9690 ft
Brooklyn Lake 0 in 10220 ft
Sand Lake 4 in 10050 ft

Earthquake Activity

City Distance Mag. Time & Date
No recent earthquake activity has been reported nearby.
Minimum magnitude displayed is 2.5.

Coastal Water Temperatures

Place Temperature
No Stations Reporting

Nearby Weather Stations